Time;durP1;ratioP1;P1;durP2;ratioP2;P2;SDS_P1;SDS_P2;PMS_P1;PMS_P2;Temp;Humidity;BMP_temperature;BMP_pressure;BME280_temperature;BME280_humidity;BME280_pressure;Samples;Min_cycle;Max_cycle;Signal;HPM_P1;HPM_P2
2021/11/08 00:02:25;;;;;;;24.75;16.93;;;;;;;7.45;78.03;99167.94;1721920;82;21538;-67
2021/11/08 00:04:52;;;;;;;24.65;17.27;;;;;;;7.44;77.98;99164.95;1710730;82;21653;-67
2021/11/08 00:07:20;;;;;;;24.95;16.40;;;;;;;7.47;77.81;99175.81;1711948;82;21064;-66
2021/11/08 00:09:47;;;;;;;24.00;16.77;;;;;;;7.47;77.66;99172.53;1712221;82;21012;-67
2021/11/08 00:12:17;;;;;;;24.25;16.30;;;;;;;7.45;77.57;99169.83;1709928;82;21082;-67
2021/11/08 00:14:44;;;;;;;23.87;16.60;;;;;;;7.40;77.67;99169.25;1710821;82;21541;-67
2021/11/08 00:17:30;;;;;;;24.35;16.95;;;;;;;7.37;77.76;99161.67;1713435;82;21530;-66
2021/11/08 00:22:12;;;;;;;24.05;16.90;;;;;;;7.37;77.74;99160.84;1731685;82;21554;-66
2021/11/08 00:24:42;;;;;;;22.82;16.48;;;;;;;7.38;77.66;99157.89;1736462;82;21091;-67
2021/11/08 00:27:10;;;;;;;22.22;15.25;;;;;;;7.38;77.63;99154.36;1730163;82;21590;-66
2021/11/08 00:29:38;;;;;;;22.27;16.32;;;;;;;7.37;77.67;99150.84;1709749;82;21514;-66
2021/11/08 00:32:07;;;;;;;23.10;16.65;;;;;;;7.34;77.77;99160.03;1724470;82;21499;-67
2021/11/08 00:34:35;;;;;;;23.70;16.15;;;;;;;7.32;77.83;99162.20;1739075;82;21012;-66
2021/11/08 00:37:02;;;;;;;20.43;15.10;;;;;;;7.32;77.83;99164.38;1739162;82;21047;-66
2021/11/08 00:39:28;;;;;;;24.12;15.85;;;;;;;7.33;77.84;99160.56;1742982;81;21021;-67
2021/11/08 00:41:54;;;;;;;23.42;16.10;;;;;;;7.34;77.85;99164.91;1757646;81;21056;-67
2021/11/08 00:44:21;;;;;;;24.02;16.25;;;;;;;7.35;77.84;99158.95;1710183;84;21087;-66
2021/11/08 00:46:48;;;;;;;24.00;16.73;;;;;;;7.30;77.96;99163.80;1730143;82;21004;-66
2021/11/08 00:49:15;;;;;;;25.97;17.48;;;;;;;7.28;78.04;99164.62;1710257;82;21518;-66
2021/11/08 00:51:44;;;;;;;23.45;16.02;;;;;;;7.31;78.00;99167.33;1716462;82;21082;-67
2021/11/08 00:54:13;;;;;;;22.30;15.43;;;;;;;7.34;77.94;99162.73;1711626;82;20996;-66
2021/11/08 00:56:42;;;;;;;20.90;15.65;;;;;;;7.34;77.88;99155.97;1717870;82;21000;-67
2021/11/08 00:59:08;;;;;;;22.98;16.27;;;;;;;7.37;77.89;99158.95;1736882;82;20953;-66
2021/11/08 01:01:35;;;;;;;22.10;16.48;;;;;;;7.37;77.76;99164.38;1732720;82;21067;-66
2021/11/08 01:04:01;;;;;;;21.15;15.60;;;;;;;7.30;77.90;99162.45;1710177;82;21038;-66
2021/11/08 01:06:27;;;;;;;22.17;15.88;;;;;;;7.28;77.96;99159.20;1711725;82;21107;-66
2021/11/08 01:08:54;;;;;;;22.25;16.10;;;;;;;7.31;77.87;99169.50;1723297;82;21130;-66
2021/11/08 01:11:21;;;;;;;23.00;16.52;;;;;;;7.33;77.80;99171.96;1723428;82;21110;-66
2021/11/08 01:13:47;;;;;;;22.98;14.83;;;;;;;7.30;77.76;99162.45;1725727;82;21054;-66
2021/11/08 01:16:13;;;;;;;22.25;16.17;;;;;;;7.31;77.82;99167.33;1742538;82;21047;-66
2021/11/08 01:18:40;;;;;;;22.30;16.12;;;;;;;7.27;77.77;99163.52;1738113;82;21545;-66
2021/11/08 01:21:08;;;;;;;23.73;16.10;;;;;;;7.21;77.91;99158.63;1725950;82;21582;-66
2021/11/08 01:23:34;;;;;;;25.23;16.87;;;;;;;7.19;77.99;99151.86;1723546;82;21062;-66
2021/11/08 01:26:11;;;;;;;20.23;16.12;;;;;;;7.18;77.98;99146.16;1725464;82;21042;-66
2021/11/08 01:28:39;;;;;;;22.67;16.37;;;;;;;7.18;77.96;99149.69;1721539;82;21019;-66
2021/11/08 01:31:06;;;;;;;23.52;16.67;;;;;;;7.20;77.88;99152.11;1723734;82;21043;-66
2021/11/08 01:33:34;;;;;;;21.27;16.07;;;;;;;7.18;77.82;99146.16;1724843;82;21565;-66
2021/11/08 01:38:38;;;;;;;25.95;17.27;;;;;;;7.04;77.83;99147.19;1725601;82;21569;-66
2021/11/08 01:40:58;;;;;;;25.62;16.97;;;;;;;7.00;77.86;99139.31;1727659;82;21572;-66
2021/11/08 01:43:25;;;;;;;21.45;15.08;;;;;;;6.96;77.92;99140.91;1742263;82;21011;-66
2021/11/08 01:45:51;;;;;;;22.27;15.32;;;;;;;6.92;78.01;99133.03;1725388;82;21027;-66
2021/11/08 01:48:18;;;;;;;;;;;;;;;6.90;77.99;99136.55;1726388;82;21038;-66
2021/11/08 01:50:44;;;;;;;22.30;16.02;;;;;;;6.87;78.01;99150.61;1729596;82;20095;-66
2021/11/08 01:53:11;;;;;;;23.18;16.27;;;;;;;6.78;78.20;99142.16;1753362;82;21122;-67
2021/11/08 01:55:38;;;;;;;23.98;16.10;;;;;;;6.73;78.32;99150.80;1752951;82;21003;-66
2021/11/08 01:58:04;;;;;;;22.85;15.83;;;;;;;6.71;78.31;99144.81;1753317;82;21002;-66
2021/11/08 02:00:32;;;;;;;25.60;16.48;;;;;;;6.68;78.33;99135.87;1750363;82;20968;-66
2021/11/08 02:02:58;;;;;;;24.12;16.48;;;;;;;6.63;78.35;99137.99;1729874;82;21023;-66
2021/11/08 02:05:24;;;;;;;23.73;16.17;;;;;;;6.59;78.46;99140.16;1725981;82;21015;-66
2021/11/08 02:07:52;;;;;;;23.65;16.95;;;;;;;6.59;78.39;99140.94;1723276;82;21087;-66
2021/11/08 02:10:20;;;;;;;25.00;16.75;;;;;;;6.60;78.32;99135.00;1723278;82;21015;-67
2021/11/08 02:12:48;;;;;;;23.45;15.95;;;;;;;6.58;78.25;99139.33;1682647;84;21711;-66
2021/11/08 02:15:18;;;;;;;24.90;16.48;;;;;;;6.55;78.23;99142.56;1671749;85;21020;-66
2021/11/08 02:17:47;;;;;;;25.62;17.85;;;;;;;6.49;78.25;99132.23;1730245;82;21502;-66
2021/11/08 02:20:28;;;;;;;26.50;17.60;;;;;;;6.44;78.32;99131.39;1728321;82;21008;-67
2021/11/08 02:22:52;;;;;;;26.30;16.93;;;;;;;6.39;78.39;99134.05;1752050;82;21596;-66
2021/11/08 02:25:20;;;;;;;23.18;15.60;;;;;;;6.38;78.38;99122.94;1732175;82;20991;-66
2021/11/08 02:27:46;;;;;;;23.42;16.45;;;;;;;6.35;78.37;99122.94;1731743;82;20980;-66
2021/11/08 02:30:12;;;;;;;23.45;16.32;;;;;;;6.33;78.35;99131.84;1753746;82;20986;-66
2021/11/08 02:32:39;;;;;;;23.15;15.90;;;;;;;6.28;78.41;99126.39;1734097;82;21044;-66
2021/11/08 02:35:08;;;;;;;25.02;16.57;;;;;;;6.23;78.50;99126.37;1724672;82;20955;-66
2021/11/08 02:37:34;;;;;;;24.75;17.10;;;;;;;6.14;78.72;99142.76;1723511;82;21656;-66
2021/11/08 02:40:02;;;;;;;24.37;16.80;;;;;;;6.08;78.97;99153.78;1723978;82;21534;-66
2021/11/08 02:42:28;;;;;;;27.22;17.37;;;;;;;6.03;79.11;99150.49;1723545;82;21117;-66
2021/11/08 02:44:56;;;;;;;25.48;16.93;;;;;;;6.00;79.28;99153.71;1723410;83;21033;-67
2021/11/08 02:47:23;;;;;;;22.17;15.80;;;;;;;5.96;79.44;99159.34;1725384;82;21073;-66
2021/11/08 02:49:51;;;;;;;24.65;16.60;;;;;;;5.94;79.55;99158.80;1723746;82;21026;-66
2021/11/08 02:52:23;;;;;;;25.88;17.00;;;;;;;5.95;79.66;99159.08;1743946;82;21000;-66
2021/11/08 02:54:51;;;;;;;25.12;16.17;;;;;;;5.90;79.71;99153.09;1752510;82;20976;-66
2021/11/08 02:57:19;;;;;;;24.27;16.42;;;;;;;5.88;79.74;99147.11;1752613;82;21075;-66
2021/11/08 02:59:46;;;;;;;21.37;15.88;;;;;;;5.87;79.71;99148.20;1750818;82;21026;-66
2021/11/08 03:02:18;;;;;;;24.37;15.72;;;;;;;5.84;79.72;99155.97;1749749;82;21082;-66
2021/11/08 03:04:52;;;;;;;28.05;17.25;;;;;;;5.81;79.82;99157.27;1737251;82;21030;-66
2021/11/08 03:07:19;;;;;;;25.08;16.37;;;;;;;5.78;80.01;99152.91;1722091;82;21565;-66
2021/11/08 03:09:50;;;;;;;26.00;16.85;;;;;;;5.74;80.11;99143.72;1710179;82;21528;-66
2021/11/08 03:12:21;;;;;;;24.07;16.60;;;;;;;5.73;80.19;99140.20;1710753;82;21103;-66
2021/11/08 03:17:37;;;;;;;25.55;16.27;;;;;;;5.69;80.32;99144.47;1732056;82;21376;-66
2021/11/08 03:23:17;;;;;;;26.77;16.52;;;;;;;5.67;80.39;99149.85;1779492;79;22794;-67
2021/11/08 03:26:00;;;;;;;23.10;16.80;;;;;;;5.53;80.67;99144.00;1742336;82;21058;-67
2021/11/08 03:28:19;;;;;;;23.30;16.93;;;;;;;5.56;80.70;99140.00;1723061;82;21050;-66
2021/11/08 03:30:48;;;;;;;23.30;15.75;;;;;;;5.59;80.56;99140.84;1722975;82;21003;-67
2021/11/08 03:33:16;;;;;;;22.00;16.15;;;;;;;5.58;80.55;99141.91;1724956;82;21094;-67
2021/11/08 03:35:43;;;;;;;22.37;16.73;;;;;;;5.56;80.62;99141.36;1723723;82;20967;-67
2021/11/08 03:38:10;;;;;;;22.48;15.13;;;;;;;5.56;80.70;99145.41;1723097;82;21069;-67
2021/11/08 03:40:39;;;;;;;22.42;15.75;;;;;;;5.56;80.73;99137.31;1723064;82;21039;-67
2021/11/08 03:43:10;;;;;;;19.05;14.15;;;;;;;5.57;80.73;99141.09;1725197;82;21035;-67
2021/11/08 03:45:36;;;;;;;21.50;15.63;;;;;;;5.56;80.72;99144.88;1723278;83;21023;-67
2021/11/08 03:48:07;;;;;;;22.80;15.30;;;;;;;5.56;80.77;99145.41;1722751;83;21542;-67
2021/11/08 03:50:35;;;;;;;22.42;15.05;;;;;;;5.55;80.74;99140.54;1731171;82;21050;-67
2021/11/08 03:53:02;;;;;;;22.90;14.73;;;;;;;5.55;80.75;99141.06;1723221;82;21048;-67
2021/11/08 03:55:29;;;;;;;23.90;16.10;;;;;;;5.52;80.78;99139.70;1733445;80;20963;-67
2021/11/08 03:57:56;;;;;;;22.42;13.98;;;;;;;5.53;80.80;99129.72;1733215;80;21069;-66
2021/11/08 04:00:24;;;;;;;21.10;14.95;;;;;;;5.54;80.73;99136.20;1728635;82;20983;-67
2021/11/08 04:02:51;;;;;;;19.95;14.98;;;;;;;5.53;80.68;99128.62;1743610;81;21534;-67
2021/11/08 04:05:18;;;;;;;20.48;14.35;;;;;;;5.50;80.77;99136.42;1750548;82;21565;-67
2021/11/08 04:07:45;;;;;;;21.15;15.05;;;;;;;5.47;80.79;99132.87;1753039;82;21538;-67
2021/11/08 04:10:12;;;;;;;19.92;14.65;;;;;;;5.48;80.71;99129.12;1752822;82;20955;-67
2021/11/08 04:12:39;;;;;;;19.32;14.68;;;;;;;5.47;80.68;99137.75;1716263;82;21043;-66
2021/11/08 04:15:09;;;;;;;20.60;15.40;;;;;;;5.45;80.70;99135.84;1723551;82;21395;-67
2021/11/08 04:17:41;;;;;;;19.95;14.70;;;;;;;5.43;80.71;99133.92;1726112;82;21055;-67
2021/11/08 04:20:05;;;;;;;19.70;14.93;;;;;;;5.41;80.70;99134.72;1739378;82;21002;-67
2021/11/08 04:22:32;;;;;;;21.52;14.55;;;;;;;5.40;80.70;99138.48;1747259;81;21023;-67
2021/11/08 04:24:59;;;;;;;21.02;15.40;;;;;;;5.35;80.75;99142.45;1753953;82;21054;-67
2021/11/08 04:27:25;;;;;;;22.55;15.15;;;;;;;5.33;80.78;99151.88;1752011;82;21082;-67
2021/11/08 04:29:52;;;;;;;22.37;14.30;;;;;;;5.27;80.87;99156.94;1754196;82;21050;-67
2021/11/08 04:32:19;;;;;;;19.87;14.35;;;;;;;5.24;80.96;99160.15;1739834;82;21046;-67
2021/11/08 04:34:50;;;;;;;20.48;14.53;;;;;;;5.21;81.11;99161.44;1752395;82;21015;-67
2021/11/08 04:37:33;;;;;;;19.57;13.78;;;;;;;5.20;81.28;99153.62;1752425;82;21131;-67
2021/11/08 04:50:18;;;;;;;19.80;14.07;;;;;;;5.12;81.61;99156.21;1752918;82;20979;-69
2021/11/08 05:28:19;;;;;;;17.25;12.68;;;;;;;5.02;81.91;99200.59;1723167;83;21078;-66
2021/11/08 05:30:33;;;;;;;19.05;13.25;;;;;;;5.03;81.90;99207.60;1728312;82;21023;-66
2021/11/08 05:33:01;;;;;;;16.30;12.55;;;;;;;5.03;81.97;99200.86;1746138;82;21090;-66
2021/11/08 05:35:28;;;;;;;18.90;12.80;;;;;;;5.05;82.01;99197.92;1735317;81;21023;-66
2021/11/08 05:37:54;;;;;;;17.98;13.50;;;;;;;5.07;82.00;99198.48;1737102;82;21070;-66
2021/11/08 05:40:29;;;;;;;17.65;12.45;;;;;;;5.08;81.94;99198.24;1753848;82;20998;-67
2021/11/08 05:42:51;;;;;;;17.15;12.47;;;;;;;5.07;81.94;99202.00;1752008;82;21050;-67
2021/11/08 05:45:17;;;;;;;17.15;12.68;;;;;;;5.11;81.97;99206.36;1750140;82;21039;-67
2021/11/08 05:47:44;;;;;;;18.67;12.43;;;;;;;5.11;81.97;99206.36;1727226;82;21034;-66
2021/11/08 05:50:13;;;;;;;17.82;12.85;;;;;;;5.12;81.79;99218.27;1732879;82;20980;-67
2021/11/08 05:52:40;;;;;;;16.70;12.68;;;;;;;5.11;81.77;99223.90;1752361;82;21942;-67
2021/11/08 05:55:10;;;;;;;16.65;12.73;;;;;;;5.11;81.76;99231.47;1725694;82;21059;-67
2021/11/08 05:57:45;;;;;;;19.37;13.08;;;;;;;5.13;81.77;99233.41;1753277;82;21647;-67
2021/11/08 06:49:49;;;;;;;16.55;11.60;;;;;;;6.80;79.35;99243.36;1723439;83;20928;-65
2021/11/08 06:52:17;;;;;;;17.42;11.35;;;;;;;6.89;79.16;99246.67;1723208;83;21577;-65
2021/11/08 06:54:45;;;;;;;17.57;12.05;;;;;;;6.97;78.91;99257.55;1723562;83;21042;-65
2021/11/08 06:57:13;;;;;;;17.27;11.12;;;;;;;6.99;78.64;99256.20;1723167;83;21074;-65
2021/11/08 06:59:41;;;;;;;13.83;10.72;;;;;;;7.00;78.57;99253.79;1723610;83;20983;-65
2021/11/08 07:02:07;;;;;;;16.45;11.53;;;;;;;7.06;78.43;99249.21;1689886;83;21063;-66
2021/11/08 07:04:34;;;;;;;15.18;10.90;;;;;;;7.11;78.16;99259.27;1723520;82;21088;-66
2021/11/08 07:07:00;;;;;;;;;;;;;;;7.15;78.06;99257.14;1725734;83;21078;-66
2021/11/08 07:09:26;;;;;;;16.40;11.20;;;;;;;7.19;78.00;99262.28;1723652;83;20124;-66
2021/11/08 07:11:54;;;;;;;16.37;11.70;;;;;;;7.15;78.15;99256.32;1723538;83;21011;-65
2021/11/08 07:14:20;;;;;;;17.77;11.75;;;;;;;7.17;78.01;99257.68;1723489;83;21038;-65
2021/11/08 07:16:46;;;;;;;15.72;11.53;;;;;;;7.24;77.69;99263.69;1723307;83;21046;-65
2021/11/08 07:19:14;;;;;;;15.13;10.85;;;;;;;7.27;77.44;99264.51;1723216;83;21054;-65
2021/11/08 07:21:40;;;;;;;17.60;11.73;;;;;;;7.29;77.27;99273.73;1723296;83;21122;-66
2021/11/08 07:24:07;;;;;;;15.68;11.55;;;;;;;7.25;77.22;99272.62;1711549;83;21083;-65
2021/11/08 07:26:33;;;;;;;15.88;11.40;;;;;;;7.30;77.28;99273.45;1709914;84;21566;-65
2021/11/08 07:28:59;;;;;;;14.80;11.45;;;;;;;7.37;77.12;99274.04;1709823;83;21625;-65
2021/11/08 07:31:26;;;;;;;;;;;;;;;7.44;76.93;99277.33;1712492;84;21083;-65
2021/11/08 07:33:53;;;;;;;14.33;10.93;;;;;;;7.47;76.89;99278.72;1709609;84;20448;-65
2021/11/08 07:36:19;;;;;;;15.65;9.98;;;;;;;7.46;76.85;99275.73;1710016;83;21550;-65
2021/11/08 07:38:45;;;;;;;15.55;11.33;;;;;;;7.60;76.68;99273.36;1709774;83;21550;-66
2021/11/08 07:41:12;;;;;;;14.98;10.72;;;;;;;7.76;76.46;99281.28;1709999;84;21741;-66
2021/11/08 07:43:41;;;;;;;15.28;11.15;;;;;;;7.93;76.02;99290.59;1709737;84;21607;-65
2021/11/08 07:46:08;;;;;;;14.28;10.38;;;;;;;7.98;75.59;99291.41;1709688;84;21036;-66
2021/11/08 07:48:39;;;;;;;16.07;11.00;;;;;;;7.97;75.26;99286.27;1709802;84;21685;-65
2021/11/08 07:51:03;;;;;;;12.98;10.25;;;;;;;7.99;74.81;99304.42;1709474;84;21078;-65
2021/11/08 07:53:30;;;;;;;;;;;;;;;7.95;74.52;99297.37;1712491;83;21031;-65
2021/11/08 07:55:56;;;;;;;15.68;10.98;;;;;;;7.88;74.48;99305.46;1710085;83;20156;-66
2021/11/08 07:58:22;;;;;;;14.18;10.98;;;;;;;7.71;74.92;99310.27;1709750;84;21122;-65
2021/11/08 08:00:49;;;;;;;16.55;10.75;;;;;;;7.68;75.05;99320.27;1710120;84;20999;-66
2021/11/08 08:03:16;;;;;;;16.65;11.08;;;;;;;7.70;75.17;99314.86;1709695;84;21086;-66
2021/11/08 08:05:42;;;;;;;15.70;10.65;;;;;;;7.73;75.21;99322.99;1709836;84;20987;-65
2021/11/08 08:08:08;;;;;;;13.28;10.55;;;;;;;7.73;75.16;99321.64;1709666;84;21096;-65
2021/11/08 08:10:35;;;;;;;14.73;10.90;;;;;;;7.68;75.45;99321.09;1710013;84;21039;-65
2021/11/08 08:13:01;;;;;;;17.05;11.63;;;;;;;7.70;75.67;99327.59;1709837;84;21110;-65
2021/11/08 08:15:28;;;;;;;;;;;;;;;7.77;75.75;99321.39;1712256;84;21067;-66
2021/11/08 08:17:56;;;;;;;14.95;10.82;;;;;;;7.85;75.55;99320.90;1709786;84;20134;-65
2021/11/08 08:20:25;;;;;;;13.05;9.75;;;;;;;7.85;75.52;99327.67;1709625;84;21539;-65
2021/11/08 08:22:51;;;;;;;14.53;10.25;;;;;;;7.84;75.43;99334.16;1663629;84;21166;-66
2021/11/08 08:25:18;;;;;;;14.23;10.40;;;;;;;7.88;75.52;99327.14;1710211;84;21019;-65
2021/11/08 08:27:46;;;;;;;15.08;10.13;;;;;;;7.93;75.28;99324.47;1709694;84;21170;-66
2021/11/08 08:30:12;;;;;;;16.85;10.65;;;;;;;8.00;75.11;99326.40;1709979;84;21514;-66
2021/11/08 08:32:39;;;;;;;15.80;11.18;;;;;;;8.06;74.90;99334.81;1709826;84;21656;-65
2021/11/08 08:35:07;;;;;;;16.25;11.25;;;;;;;8.06;74.76;99326.69;1710105;84;21012;-65
2021/11/08 08:37:34;;;;;;;14.63;10.48;;;;;;;8.09;75.03;99322.62;1709852;84;21062;-65
2021/11/08 08:40:00;;;;;;;16.32;10.40;;;;;;;8.20;74.60;99324.29;1710211;84;20964;-66
2021/11/08 08:42:26;;;;;;;14.68;10.88;;;;;;;8.36;74.24;99328.16;1709951;84;21059;-66
2021/11/08 08:44:53;;;;;;;15.72;11.15;;;;;;;8.58;73.94;99323.88;1715672;82;20990;-65
2021/11/08 08:47:20;;;;;;;12.95;10.05;;;;;;;8.91;73.83;99327.45;1718635;81;21135;-67
2021/11/08 08:49:46;;;;;;;13.30;9.55;;;;;;;9.20;72.51;99333.17;1721161;82;21026;-66
2021/11/08 08:52:13;;;;;;;14.45;10.00;;;;;;;9.46;71.50;99333.94;1730614;81;21031;-66
2021/11/08 08:54:39;;;;;;;13.35;10.35;;;;;;;9.71;70.67;99327.09;1741828;81;21063;-67
2021/11/08 08:57:07;;;;;;;13.48;9.40;;;;;;;9.98;69.80;99327.57;1750205;81;21034;-67
2021/11/08 08:59:34;;;;;;;12.78;9.60;;;;;;;10.06;68.71;99318.57;1736484;82;21019;-67
2021/11/08 09:02:01;;;;;;;12.68;9.38;;;;;;;10.02;67.98;99331.91;1734088;82;21106;-72
2021/11/08 09:04:27;;;;;;;10.70;8.85;;;;;;;9.94;67.54;99337.91;1727209;81;21052;-69
2021/11/08 09:06:55;;;;;;;11.48;8.75;;;;;;;9.92;67.46;99346.88;1725534;81;21399;-70
2021/11/08 09:09:23;;;;;;;13.25;9.10;;;;;;;10.03;66.94;99338.95;1718994;82;21036;-70
2021/11/08 09:11:49;;;;;;;12.33;9.28;;;;;;;10.00;66.49;99343.59;1718741;82;21092;-69
2021/11/08 09:14:16;;;;;;;10.30;7.92;;;;;;;9.92;66.33;99346.88;1725373;82;21487;-69
2021/11/08 09:16:44;;;;;;;16.02;9.60;;;;;;;9.77;66.19;99346.40;1712671;82;21079;-69
2021/11/08 09:19:11;;;;;;;14.53;8.43;;;;;;;9.62;66.62;99341.53;1721918;82;21047;-74
2021/11/08 09:21:37;;;;;;;13.15;9.28;;;;;;;9.58;67.24;99342.62;1714224;82;21047;-69
2021/11/08 09:24:04;;;;;;;13.22;8.28;;;;;;;9.56;67.23;99350.78;1725950;82;21002;-68
2021/11/08 09:26:33;;;;;;;14.10;8.65;;;;;;;9.43;66.91;99338.02;1745810;82;21071;-68
2021/11/08 09:29:01;;;;;;;13.38;8.45;;;;;;;9.29;67.00;99343.73;1735654;82;21582;-69
2021/11/08 09:31:28;;;;;;;12.82;7.85;;;;;;;9.20;67.04;99333.70;1739211;82;21569;-69
2021/11/08 09:34:03;;;;;;;12.23;7.65;;;;;;;9.24;67.47;99333.44;1734463;82;21498;-69
2021/11/08 09:36:24;;;;;;;11.43;7.08;;;;;;;9.36;66.95;99317.66;1738649;82;21066;-70
2021/11/08 09:38:52;;;;;;;9.63;6.60;;;;;;;9.38;66.88;99331.80;1740943;82;21075;-69
2021/11/08 09:41:19;;;;;;;9.60;6.30;;;;;;;9.40;66.44;99326.34;1675784;85;21064;-70
2021/11/08 09:43:45;;;;;;;;;;;;;;;9.46;65.64;99323.88;1731897;82;20987;-70
2021/11/08 09:46:12;;;;;;;8.73;5.40;;;;;;;9.56;64.71;99326.33;1735532;82;20158;-69
2021/11/08 09:48:40;;;;;;;9.80;5.78;;;;;;;9.56;64.25;99333.13;1737174;82;21006;-70
2021/11/08 09:51:11;;;;;;;8.85;5.10;;;;;;;9.64;63.45;99335.26;1748583;82;20975;-71
2021/11/08 09:53:38;;;;;;;10.58;6.17;;;;;;;9.59;62.38;99335.28;1747589;82;20991;-71
2021/11/08 09:56:05;;;;;;;10.05;6.92;;;;;;;9.55;62.50;99345.07;1758215;80;21003;-68
2021/11/08 09:58:33;;;;;;;15.40;8.53;;;;;;;9.53;61.80;99351.34;1687919;84;21585;-70
2021/11/08 10:01:03;;;;;;;13.75;8.43;;;;;;;9.47;61.93;99355.41;1724296;82;21051;-71
2021/11/08 10:03:30;;;;;;;14.05;7.15;;;;;;;9.41;61.97;99351.08;1723800;82;21055;-70
2021/11/08 10:05:58;;;;;;;11.68;7.70;;;;;;;9.36;62.08;99368.73;1736736;82;21004;-70
2021/11/08 10:08:28;;;;;;;12.58;7.58;;;;;;;9.28;62.66;99370.63;1726819;82;21498;-70
2021/11/08 10:10:58;;;;;;;10.08;6.20;;;;;;;9.34;62.62;99370.09;1733776;82;21058;-70
2021/11/08 10:13:28;;;;;;;10.00;5.45;;;;;;;9.37;62.02;99358.68;1723421;82;21060;-68
2021/11/08 10:15:59;;;;;;;8.75;4.87;;;;;;;9.35;61.82;99368.45;1739837;82;20959;-70
2021/11/08 10:18:29;;;;;;;10.50;4.45;;;;;;;9.38;61.55;99358.42;1742598;82;20991;-70
2021/11/08 10:21:11;;;;;;;13.15;6.30;;;;;;;9.42;61.15;99365.48;1719556;82;21015;-71
2021/11/08 10:23:40;;;;;;;13.40;6.78;;;;;;;9.46;60.96;99361.10;1734454;81;21050;-70
2021/11/08 10:26:13;;;;;;;15.38;7.15;;;;;;;9.48;60.83;99361.13;1753247;82;21031;-70
2021/11/08 10:28:40;;;;;;;17.85;11.90;;;;;;;9.53;60.49;99368.43;1753339;82;21129;-69
2021/11/08 10:31:11;;;;;;;13.75;8.38;;;;;;;9.53;60.25;99365.72;1746504;81;21001;-71
2021/11/08 10:33:39;;;;;;;8.18;5.40;;;;;;;9.54;60.21;99378.22;1750076;80;21121;-70
2021/11/08 10:36:16;;;;;;;9.83;4.62;;;;;;;9.55;59.84;99374.96;1743423;82;21007;-71
2021/11/08 10:38:45;;;;;;;9.40;4.80;;;;;;;9.57;59.55;99368.70;1752968;82;21039;-71
2021/11/08 10:41:19;;;;;;;10.58;4.40;;;;;;;9.62;59.07;99368.16;1753423;82;21433;-72
2021/11/08 10:43:54;;;;;;;7.78;4.40;;;;;;;9.68;58.64;99364.88;1740927;82;21038;-71
2021/11/08 10:46:32;;;;;;;7.03;3.42;;;;;;;9.70;58.29;99366.80;1740816;82;21142;-69
2021/11/08 10:49:19;;;;;;;9.33;3.50;;;;;;;9.76;58.30;99358.35;1734553;80;21049;-70
2021/11/08 10:51:56;;;;;;;7.45;3.92;;;;;;;9.81;57.79;99342.58;1736162;82;21506;-69
2021/11/08 10:54:33;;;;;;;7.45;3.62;;;;;;;9.80;57.33;99340.41;1745657;82;21055;-69
2021/11/08 10:57:05;;;;;;;8.85;3.98;;;;;;;9.75;57.53;99336.87;1743270;82;21055;-70
2021/11/08 10:59:37;;;;;;;8.15;3.80;;;;;;;9.70;57.65;99348.59;1732865;82;21541;-70
2021/11/08 11:02:05;;;;;;;7.47;3.75;;;;;;;9.67;57.60;99346.97;1779843;80;21047;-70
2021/11/08 11:04:43;;;;;;;6.08;3.37;;;;;;;9.64;57.45;99343.41;1701913;81;21816;-70
2021/11/08 11:07:07;;;;;;;7.67;3.60;;;;;;;9.59;57.72;99344.80;1723120;83;21012;-71
2021/11/08 11:09:36;;;;;;;8.00;3.33;;;;;;;9.56;57.91;99335.84;1748498;82;21066;-71
2021/11/08 11:12:22;;;;;;;7.45;3.52;;;;;;;9.54;58.05;99355.66;1753144;82;21098;-70
2021/11/08 11:15:06;;;;;;;7.50;3.65;;;;;;;9.50;58.15;99343.98;1752131;82;21436;-69
2021/11/08 11:17:55;;;;;;;8.58;4.40;;;;;;;9.48;58.28;99342.10;1728580;82;21058;-70
2021/11/08 11:20:25;;;;;;;8.75;4.35;;;;;;;9.47;58.15;99345.90;1741393;82;21019;-70
2021/11/08 11:23:05;;;;;;;5.67;3.50;;;;;;;9.47;58.27;99347.80;1745591;82;21755;-69
2021/11/08 11:25:34;;;;;;;7.22;3.30;;;;;;;9.48;58.46;99365.73;1742265;82;21043;-67
2021/11/08 11:28:01;;;;;;;7.62;3.75;;;;;;;9.48;58.35;99358.41;1736904;82;21615;-70
2021/11/08 11:30:34;;;;;;;8.43;3.30;;;;;;;9.48;58.18;99350.80;1726252;82;20995;-70
2021/11/08 11:33:17;;;;;;;7.45;3.58;;;;;;;9.47;58.12;99354.05;1725112;82;21093;-71
2021/11/08 11:36:09;;;;;;;8.20;4.15;;;;;;;9.46;57.82;99364.64;1723140;83;21082;-70
2021/11/08 11:38:41;;;;;;;7.67;4.00;;;;;;;9.44;57.97;99358.67;1730596;80;20968;-70
2021/11/08 11:41:18;;;;;;;8.75;4.67;;;;;;;9.43;58.11;99351.60;1767848;80;21039;-69
2021/11/08 11:43:52;;;;;;;6.80;3.22;;;;;;;9.46;57.82;99343.44;1764327;80;21058;-69
2021/11/08 11:46:24;;;;;;;7.72;3.02;;;;;;;9.45;57.01;99341.30;1744079;82;21106;-69
2021/11/08 11:48:51;;;;;;;7.45;3.15;;;;;;;9.46;56.40;99348.34;1752285;82;21023;-70
2021/11/08 11:51:25;;;;;;;;;;;;;;;9.46;56.28;99348.34;1755065;82;20971;-68
2021/11/08 11:53:52;;;;;;;7.20;2.87;;;;;;;9.47;56.15;99349.16;1734373;82;20108;-68
2021/11/08 11:56:19;;;;;;;7.03;2.77;;;;;;;9.41;56.71;99351.08;1723225;83;21474;-68
2021/11/08 11:58:46;;;;;;;8.60;3.60;;;;;;;9.44;56.75;99334.77;1734472;82;21536;-69
2021/11/08 12:01:15;;;;;;;7.60;3.83;;;;;;;9.47;56.54;99340.47;1741128;82;21037;-68
2021/11/08 12:03:44;;;;;;;9.05;4.00;;;;;;;9.51;56.27;99347.52;1732514;80;21522;-70
2021/11/08 12:06:13;;;;;;;9.70;3.20;;;;;;;9.54;56.19;99365.99;1723133;83;21050;-69
2021/11/08 12:08:40;;;;;;;7.17;3.60;;;;;;;9.57;56.34;99357.83;1722929;82;21033;-68
2021/11/08 12:11:07;;;;;;;9.70;4.37;;;;;;;9.59;56.20;99365.18;1723354;82;20995;-68
2021/11/08 12:13:40;;;;;;;8.53;3.42;;;;;;;9.62;56.13;99370.88;1738266;82;20979;-69
2021/11/08 12:16:19;;;;;;;7.17;2.80;;;;;;;9.66;56.33;99369.79;1737387;82;20999;-70
2021/11/08 12:18:46;;;;;;;5.67;2.67;;;;;;;9.66;55.82;99371.15;1734019;82;21021;-70
2021/11/08 12:21:30;;;;;;;6.62;2.90;;;;;;;9.67;55.76;99367.35;1741216;82;21025;-70
2021/11/08 12:23:58;;;;;;;7.17;3.15;;;;;;;9.67;55.30;99369.50;1743127;81;21118;-69
2021/11/08 12:26:29;;;;;;;7.25;2.92;;;;;;;9.64;55.30;99375.48;1753040;82;21059;-69
2021/11/08 12:29:20;;;;;;;5.85;2.90;;;;;;;9.66;55.42;99375.22;1753107;81;21004;-68
2021/11/08 12:31:50;;;;;;;6.28;2.90;;;;;;;9.66;55.27;99382.02;1753605;82;21550;-69
2021/11/08 12:34:21;;;;;;;7.78;2.83;;;;;;;9.66;54.94;99380.66;1737574;82;21009;-68
2021/11/08 12:36:59;;;;;;;9.63;3.30;;;;;;;9.66;55.21;99388.81;1749566;82;21031;-68
2021/11/08 12:39:26;;;;;;;5.17;2.30;;;;;;;9.64;54.97;99385.00;1729656;82;21014;-69
2021/11/08 12:42:06;;;;;;;7.40;2.37;;;;;;;9.64;54.72;99397.23;1732599;82;21652;-65
2021/11/08 12:44:41;;;;;;;6.17;2.45;;;;;;;9.64;54.21;99394.51;1740101;82;21082;-66
2021/11/08 12:47:10;;;;;;;6.00;2.67;;;;;;;9.64;54.15;99391.79;1769976;80;21027;-65
2021/11/08 12:49:51;;;;;;;5.37;2.98;;;;;;;9.63;54.30;99393.44;1738383;82;21018;-65
2021/11/08 12:52:26;;;;;;;5.80;2.77;;;;;;;9.58;54.65;99392.89;1723674;82;21035;-65
2021/11/08 12:54:57;;;;;;;5.35;2.60;;;;;;;9.52;55.03;99389.10;1740478;82;21046;-65
2021/11/08 12:57:25;;;;;;;6.30;2.60;;;;;;;9.50;55.38;99394.25;1738851;81;21047;-65
2021/11/08 12:59:59;;;;;;;5.60;2.72;;;;;;;9.48;55.42;99396.98;1730837;82;21023;-65
2021/11/08 13:02:42;;;;;;;6.95;2.60;;;;;;;9.49;55.76;99407.56;1752681;82;21502;-66
2021/11/08 13:05:08;;;;;;;7.72;2.87;;;;;;;9.49;55.90;99406.20;1738911;82;21589;-65
2021/11/08 13:07:41;;;;;;;5.58;2.30;;;;;;;9.49;56.05;99417.64;1742472;80;21101;-64
2021/11/08 13:10:21;;;;;;;6.45;2.35;;;;;;;9.47;55.81;99408.93;1733015;82;21006;-65
2021/11/08 13:25:56;;;;;;;8.43;3.70;;;;;;;9.16;55.97;99429.02;1790816;79;22910;-65
2021/11/08 13:28:26;;;;;;;12.90;5.42;;;;;;;9.07;55.80;99434.16;1760118;80;21141;-65
2021/11/08 13:30:59;;;;;;;6.58;3.00;;;;;;;9.06;55.88;99447.48;1748552;81;20989;-65
2021/11/08 13:33:29;;;;;;;7.65;3.55;;;;;;;9.08;55.91;99449.37;1762611;81;21046;-65
2021/11/08 13:35:56;;;;;;;8.03;3.70;;;;;;;9.10;56.10;99443.69;1761027;81;21011;-65
2021/11/08 13:38:31;;;;;;;9.93;4.33;;;;;;;9.12;56.19;99451.83;1761886;80;21078;-63
2021/11/08 13:41:16;;;;;;;9.23;3.62;;;;;;;9.12;56.30;99457.80;1763171;81;20999;-65